CFG6KW VRMM-EDDF
Flight info
| Callsign | CFG6KW |
|---|---|
| Flight time | N/A |
| Altitude | 32000 |
| Route | MUNUT1B MUNUT R329 POMAN P570 OTABI/N0495F330 A474 BBB G208 APANO/N0498F340 G208 KE B210 NH/N0496F330 G326 LUBNA/N0493F350 G326 ZB/N0491F340 L750 RANAH A846 OLADI/N0481F360 A846 ABDAN A909 RODAR N644 ADEKI DCT BADIR DCT LAGAS DCT NOLGA UG261 TBN/N0483F380 UM11 CRM UL746 ODERO DCT OPT DCT ULMIN DCT DEGET DCT ABETI DCT PEROL DCT SUBEN DCT AKINI T161 DEBHI DEBHI1B |
| Aircraft | A339/H-SADE1E2E3GHIJ3J5M1P2RWXY/LB2D1 |
Departure
| Time | N/A |
|---|---|
| Airport | Velana International Airport (VRMM) |
Arrival
| Time | 2026-05-05 11:04 |
|---|---|
| Airport | Frankfurt Main Airport (EDDF) |
| Time | Latitude | Longitude | Altitude | Speed | Heading |
|---|---|---|---|---|---|
| 2026-05-05 10:18 | 48.16723 | 14.83909 | 31815 ft | 389 kts | 287° |
| 2026-05-05 10:18 | 48.17545 | 14.80053 | 31817 ft | 390 kts | 287° |
| 2026-05-05 10:19 | 48.19190 | 14.72317 | 31818 ft | 389 kts | 287° |
| 2026-05-05 10:19 | 48.20814 | 14.64650 | 31815 ft | 389 kts | 287° |
| 2026-05-05 10:20 | 48.22448 | 14.56902 | 31814 ft | 390 kts | 287° |
| 2026-05-05 10:20 | 48.24072 | 14.49174 | 31807 ft | 390 kts | 285° |
| 2026-05-05 10:21 | 48.25485 | 14.41373 | 31806 ft | 390 kts | 284° |
| 2026-05-05 10:21 | 48.26848 | 14.33518 | 31813 ft | 390 kts | 283° |
| 2026-05-05 10:22 | 48.28206 | 14.25647 | 31815 ft | 391 kts | 283° |
| 2026-05-05 10:22 | 48.29558 | 14.17796 | 31813 ft | 393 kts | 283° |
| 2026-05-05 10:23 | 48.30916 | 14.09867 | 31813 ft | 393 kts | 283° |
| 2026-05-05 10:23 | 48.32268 | 14.01937 | 31814 ft | 392 kts | 283° |
| 2026-05-05 10:24 | 48.33611 | 13.94026 | 31820 ft | 392 kts | 283° |
| 2026-05-05 10:24 | 48.34943 | 13.86142 | 31829 ft | 392 kts | 283° |
| 2026-05-05 10:25 | 48.36279 | 13.78201 | 31827 ft | 393 kts | 283° |
| 2026-05-05 10:25 | 48.37606 | 13.70276 | 31830 ft | 393 kts | 282° |
| 2026-05-05 10:26 | 48.38934 | 13.62312 | 31829 ft | 393 kts | 282° |
| 2026-05-05 10:26 | 48.40247 | 13.54386 | 31821 ft | 392 kts | 282° |
| 2026-05-05 10:27 | 48.41550 | 13.46485 | 31823 ft | 392 kts | 282° |
| 2026-05-05 10:27 | 48.42858 | 13.38513 | 31816 ft | 392 kts | 282° |
| 2026-05-05 10:28 | 48.44462 | 13.30666 | 31815 ft | 394 kts | 288° |
| 2026-05-05 10:28 | 48.46458 | 13.23044 | 31810 ft | 395 kts | 289° |
| 2026-05-05 10:29 | 48.48479 | 13.15412 | 31815 ft | 395 kts | 289° |
| 2026-05-05 10:29 | 48.50500 | 13.07733 | 31816 ft | 395 kts | 289° |
| 2026-05-05 10:30 | 48.52506 | 13.00079 | 31819 ft | 394 kts | 289° |
| 2026-05-05 10:30 | 48.54512 | 12.92393 | 31818 ft | 394 kts | 289° |
| 2026-05-05 10:31 | 48.56506 | 12.84730 | 31817 ft | 394 kts | 289° |
| 2026-05-05 10:31 | 48.58495 | 12.77060 | 31817 ft | 394 kts | 289° |
| 2026-05-05 10:32 | 48.60473 | 12.69409 | 31818 ft | 395 kts | 288° |
| 2026-05-05 10:32 | 48.62456 | 12.61707 | 31814 ft | 395 kts | 288° |
| 2026-05-05 10:33 | 48.64442 | 12.53968 | 31814 ft | 395 kts | 288° |
| 2026-05-05 10:33 | 48.66409 | 12.46275 | 31810 ft | 395 kts | 288° |
| 2026-05-05 10:34 | 48.68376 | 12.38558 | 31818 ft | 395 kts | 288° |
| 2026-05-05 10:34 | 48.70336 | 12.30835 | 31813 ft | 395 kts | 287° |
| 2026-05-05 10:35 | 48.72296 | 12.23088 | 31817 ft | 395 kts | 288° |
| 2026-05-05 10:35 | 48.74180 | 12.15325 | 31814 ft | 394 kts | 284° |
| 2026-05-05 10:36 | 48.75533 | 12.07291 | 31813 ft | 392 kts | 277° |
| 2026-05-05 10:36 | 48.76433 | 11.99183 | 31813 ft | 392 kts | 276° |
| 2026-05-05 10:37 | 48.77299 | 11.91085 | 31812 ft | 393 kts | 276° |
| 2026-05-05 10:37 | 48.78173 | 11.82894 | 31813 ft | 393 kts | 276° |
| 2026-05-05 10:38 | 48.79036 | 11.74759 | 31814 ft | 393 kts | 276° |
| 2026-05-05 10:38 | 48.79893 | 11.66620 | 31814 ft | 393 kts | 276° |
| 2026-05-05 10:39 | 48.80745 | 11.58487 | 31819 ft | 393 kts | 276° |
| 2026-05-05 10:39 | 48.81593 | 11.50313 | 31820 ft | 393 kts | 276° |
| 2026-05-05 10:40 | 48.82428 | 11.42170 | 31823 ft | 394 kts | 275° |
| 2026-05-05 10:40 | 48.83264 | 11.33975 | 31823 ft | 394 kts | 276° |
| 2026-05-05 10:41 | 48.84786 | 11.25927 | 31829 ft | 401 kts | 289° |
| 2026-05-05 10:41 | 48.87536 | 11.18540 | 31829 ft | 408 kts | 302° |
| 2026-05-05 10:42 | 48.91372 | 11.12223 | 31834 ft | 413 kts | 313° |
| 2026-05-05 10:42 | 48.93492 | 11.09300 | 31833 ft | 413 kts | 314° |
| 2026-05-05 10:43 | 48.97749 | 11.03454 | 31829 ft | 413 kts | 314° |
| 2026-05-05 10:43 | 49.01983 | 10.97527 | 31832 ft | 414 kts | 313° |
| 2026-05-05 10:44 | 49.06177 | 10.91624 | 31826 ft | 414 kts | 313° |
| 2026-05-05 10:44 | 49.10387 | 10.85691 | 31818 ft | 414 kts | 313° |
| 2026-05-05 10:45 | 49.14600 | 10.79730 | 31820 ft | 415 kts | 313° |
| 2026-05-05 10:45 | 49.18809 | 10.73754 | 31824 ft | 415 kts | 312° |
| 2026-05-05 10:45 | 49.20895 | 10.70629 | 31640 ft | 419 kts | 310° |
| 2026-05-05 10:46 | 49.22937 | 10.67436 | 30876 ft | 428 kts | 310° |
| 2026-05-05 10:46 | 49.24996 | 10.64172 | 29751 ft | 441 kts | 310° |
| 2026-05-05 10:46 | 49.27149 | 10.60756 | 28423 ft | 457 kts | 311° |
| 2026-05-05 10:46 | 49.29394 | 10.57197 | 26967 ft | 473 kts | 311° |
| 2026-05-05 10:47 | 49.31675 | 10.53587 | 25447 ft | 481 kts | 312° |
| 2026-05-05 10:47 | 49.33969 | 10.49928 | 24416 ft | 474 kts | 310° |
| 2026-05-05 10:47 | 49.36114 | 10.46167 | 23405 ft | 466 kts | 307° |
| 2026-05-05 10:47 | 49.38060 | 10.42322 | 22457 ft | 458 kts | 304° |
| 2026-05-05 10:48 | 49.39876 | 10.38415 | 21807 ft | 445 kts | 303° |
| 2026-05-05 10:48 | 49.41622 | 10.34587 | 21044 ft | 436 kts | 302° |
| 2026-05-05 10:48 | 49.43334 | 10.30807 | 20159 ft | 431 kts | 302° |
| 2026-05-05 10:48 | 49.45048 | 10.27023 | 19251 ft | 427 kts | 302° |
| 2026-05-05 10:49 | 49.46724 | 10.23326 | 18380 ft | 422 kts | 302° |
| 2026-05-05 10:49 | 49.48367 | 10.19699 | 17534 ft | 418 kts | 302° |
| 2026-05-05 10:49 | 49.50011 | 10.16066 | 16703 ft | 412 kts | 302° |
| 2026-05-05 10:49 | 49.51623 | 10.12501 | 15903 ft | 407 kts | 302° |
| 2026-05-05 10:50 | 49.53225 | 10.08955 | 15106 ft | 402 kts | 302° |
| 2026-05-05 10:50 | 49.54813 | 10.05482 | 14311 ft | 397 kts | 305° |
| 2026-05-05 10:50 | 49.56522 | 10.02175 | 13515 ft | 393 kts | 307° |
| 2026-05-05 10:50 | 49.58239 | 9.98978 | 12748 ft | 388 kts | 308° |
| 2026-05-05 10:51 | 49.59946 | 9.95792 | 11954 ft | 384 kts | 308° |
| 2026-05-05 10:51 | 49.61623 | 9.92637 | 11280 ft | 378 kts | 308° |
| 2026-05-05 10:51 | 49.63274 | 9.89507 | 10910 ft | 379 kts | 308° |
| 2026-05-05 10:51 | 49.64936 | 9.86337 | 10867 ft | 380 kts | 307° |
| 2026-05-05 10:52 | 49.66575 | 9.83206 | 10849 ft | 380 kts | 307° |
| 2026-05-05 10:52 | 49.68240 | 9.80011 | 10835 ft | 380 kts | 307° |
| 2026-05-05 10:52 | 49.69888 | 9.76843 | 10835 ft | 379 kts | 307° |
| 2026-05-05 10:52 | 49.71513 | 9.73717 | 10826 ft | 364 kts | 307° |
| 2026-05-05 10:53 | 49.73060 | 9.70738 | 10825 ft | 349 kts | 307° |
| 2026-05-05 10:53 | 49.74530 | 9.67901 | 10819 ft | 335 kts | 307° |
| 2026-05-05 10:53 | 49.76027 | 9.65002 | 10835 ft | 358 kts | 307° |
| 2026-05-05 10:53 | 49.77618 | 9.61914 | 10826 ft | 377 kts | 307° |
| 2026-05-05 10:54 | 49.79259 | 9.58729 | 10824 ft | 380 kts | 307° |
| 2026-05-05 10:54 | 49.80930 | 9.55489 | 10815 ft | 381 kts | 307° |
| 2026-05-05 10:54 | 49.82574 | 9.52300 | 10769 ft | 377 kts | 307° |
| 2026-05-05 10:54 | 49.84201 | 9.49138 | 10378 ft | 375 kts | 307° |
| 2026-05-05 10:55 | 49.85803 | 9.46017 | 9841 ft | 375 kts | 308° |
| 2026-05-05 10:55 | 49.87413 | 9.42877 | 9364 ft | 373 kts | 308° |
| 2026-05-05 10:55 | 49.89025 | 9.39728 | 8906 ft | 370 kts | 308° |
| 2026-05-05 10:55 | 49.90606 | 9.36639 | 8459 ft | 367 kts | 308° |
| 2026-05-05 10:56 | 49.92181 | 9.33559 | 8014 ft | 365 kts | 307° |
| 2026-05-05 10:56 | 49.93749 | 9.30493 | 7577 ft | 362 kts | 307° |
| 2026-05-05 10:56 | 49.95316 | 9.27423 | 7134 ft | 359 kts | 307° |
| 2026-05-05 10:56 | 49.96831 | 9.24449 | 6845 ft | 353 kts | 307° |
| 2026-05-05 10:57 | 49.98370 | 9.21423 | 6822 ft | 353 kts | 307° |
| 2026-05-05 10:57 | 49.99868 | 9.18475 | 6576 ft | 350 kts | 307° |
| 2026-05-05 10:57 | 50.01371 | 9.15512 | 6074 ft | 350 kts | 307° |
| 2026-05-05 10:57 | 50.02869 | 9.12556 | 5622 ft | 348 kts | 307° |
| 2026-05-05 10:58 | 50.04368 | 9.09597 | 5211 ft | 345 kts | 308° |
| 2026-05-05 10:58 | 50.05841 | 9.06680 | 4794 ft | 343 kts | 308° |
| 2026-05-05 10:58 | 50.07293 | 9.03804 | 4371 ft | 338 kts | 308° |
| 2026-05-05 10:58 | 50.08706 | 9.01001 | 4000 ft | 317 kts | 308° |
| 2026-05-05 10:59 | 50.09996 | 8.98442 | 3982 ft | 286 kts | 307° |
| 2026-05-05 10:59 | 50.10906 | 8.95841 | 3969 ft | 259 kts | 287° |
| 2026-05-05 10:59 | 50.11367 | 8.93236 | 4009 ft | 243 kts | 283° |
| 2026-05-05 10:59 | 50.11462 | 8.90699 | 3990 ft | 233 kts | 261° |
| 2026-05-05 11:00 | 50.11079 | 8.88277 | 3994 ft | 228 kts | 253° |
| 2026-05-05 11:00 | 50.10579 | 8.85934 | 3909 ft | 230 kts | 251° |
| 2026-05-05 11:00 | 50.10013 | 8.83522 | 3630 ft | 233 kts | 250° |
| 2026-05-05 11:00 | 50.09437 | 8.81156 | 3320 ft | 237 kts | 249° |
| 2026-05-05 11:01 | 50.08855 | 8.78780 | 2973 ft | 234 kts | 250° |
| 2026-05-05 11:01 | 50.08289 | 8.76455 | 2688 ft | 227 kts | 250° |
| 2026-05-05 11:01 | 50.07740 | 8.74187 | 2396 ft | 214 kts | 250° |
| 2026-05-05 11:01 | 50.07231 | 8.72088 | 2060 ft | 202 kts | 250° |
| 2026-05-05 11:02 | 50.06743 | 8.70120 | 1837 ft | 186 kts | 249° |
| 2026-05-05 11:02 | 50.06292 | 8.68320 | 1646 ft | 174 kts | 248° |
| 2026-05-05 11:02 | 50.05869 | 8.66625 | 1480 ft | 162 kts | 253° |
| 2026-05-05 11:02 | 50.05536 | 8.65036 | 1313 ft | 153 kts | 249° |
| 2026-05-05 11:03 | 50.05163 | 8.63506 | 1081 ft | 148 kts | 251° |
| 2026-05-05 11:03 | 50.04817 | 8.62008 | 832 ft | 145 kts | 249° |
| 2026-05-05 11:03 | 50.04464 | 8.60571 | 627 ft | 142 kts | 250° |
| 2026-05-05 11:03 | 50.04127 | 8.59134 | 441 ft | 141 kts | 249° |
| 2026-05-05 11:04 | 50.03789 | 8.57729 | 363 ft | 131 kts | 250° |
| 2026-05-05 11:04 | 50.03516 | 8.56596 | 363 ft | 84 kts | 251° |
| 2026-05-05 11:04 | 50.03370 | 8.55984 | 363 ft | 44 kts | 248° |
| 2026-05-05 11:04 | 50.03321 | 8.55643 | 363 ft | 29 kts | 274° |
| 2026-05-05 11:05 | 50.03334 | 8.55346 | 363 ft | 20 kts | 278° |
| 2026-05-05 11:05 | 50.03370 | 8.55187 | 363 ft | 9 kts | 327° |
| 2026-05-05 11:05 | 50.03427 | 8.55206 | 363 ft | 8 kts | 54° |
| 2026-05-05 11:05 | 50.03451 | 8.55301 | 363 ft | 10 kts | 72° |
| 2026-05-05 11:06 | 50.03477 | 8.55415 | 363 ft | 12 kts | 71° |
| 2026-05-05 11:06 | 50.03510 | 8.55549 | 363 ft | 15 kts | 69° |
| 2026-05-05 11:06 | 50.03559 | 8.55741 | 363 ft | 22 kts | 69° |
| 2026-05-05 11:06 | 50.03616 | 8.56003 | 363 ft | 27 kts | 69° |
| 2026-05-05 11:07 | 50.03693 | 8.56309 | 363 ft | 32 kts | 70° |
| 2026-05-05 11:07 | 50.03769 | 8.56637 | 363 ft | 31 kts | 71° |
| 2026-05-05 11:07 | 50.03846 | 8.56947 | 363 ft | 29 kts | 69° |
| 2026-05-05 11:07 | 50.03917 | 8.57239 | 363 ft | 28 kts | 70° |
| 2026-05-05 11:08 | 50.03983 | 8.57518 | 363 ft | 26 kts | 70° |
| 2026-05-05 11:08 | 50.04047 | 8.57783 | 363 ft | 25 kts | 69° |
| 2026-05-05 11:08 | 50.04099 | 8.58001 | 363 ft | 18 kts | 71° |
| 2026-05-05 11:08 | 50.04167 | 8.58159 | 363 ft | 16 kts | 34° |
| 2026-05-05 11:09 | 50.04250 | 8.58209 | 363 ft | 12 kts | 7° |
| 2026-05-05 11:09 | 50.04334 | 8.58182 | 363 ft | 12 kts | 341° |
| 2026-05-05 11:09 | 50.04420 | 8.58136 | 363 ft | 13 kts | 339° |
| 2026-05-05 11:09 | 50.04485 | 8.58096 | 363 ft | 8 kts | 339° |
| 2026-05-05 11:10 | 50.04526 | 8.58070 | 363 ft | 7 kts | 338° |
| 2026-05-05 11:10 | 50.04578 | 8.58038 | 363 ft | 8 kts | 339° |
| 2026-05-05 11:10 | 50.04623 | 8.58012 | 363 ft | 5 kts | 340° |
| 2026-05-05 11:10 | 50.04639 | 8.58002 | 363 ft | 0 kts | 339° |
| 2026-05-05 11:11 | 50.04642 | 8.58000 | 363 ft | 1 kts | 339° |
| 2026-05-05 11:11 | 50.04694 | 8.57970 | 363 ft | 10 kts | 341° |
| 2026-05-05 11:12 | 50.04766 | 8.57933 | 364 ft | 11 kts | 341° |
| 2026-05-05 11:12 | 50.04838 | 8.57868 | 364 ft | 12 kts | 312° |
| 2026-05-05 11:12 | 50.04880 | 8.57745 | 364 ft | 13 kts | 291° |
| 2026-05-05 11:12 | 50.04910 | 8.57633 | 364 ft | 7 kts | 292° |
| 2026-05-05 11:13 | 50.04907 | 8.57567 | 364 ft | 6 kts | 234° |
| 2026-05-05 11:13 | 50.04886 | 8.57546 | 364 ft | 3 kts | 216° |
| 2026-05-05 11:13 | 50.04872 | 8.57531 | 364 ft | 1 kts | 208° |
| 2026-05-05 11:13 | 50.04867 | 8.57527 | 364 ft | 0 kts | 206° |